French River @ Webster, Ma

French River at Webster
 Total Drainage Area: 85 sq. miles 
 Drainage Area Controlled by Corps Dams: 58 sq. miles (68%) 
 Warning Flow/Stage: 580 cfs / 6.9 feet 
 Flood Flow/Stage: 1,000 cfs / 8.4 feet 
Date Time
(Eastern)
Stage
(ft)
Flow
(cfs)
CSM
(cfs / sq. mi.)
Jan-31 01:30 pm 6.59 502 5.9
Jan-31 12:30 pm 6.62 511 6.0
Jan-31 11:30 am 6.63 514 6.1
Jan-31 10:30 am 6.64 517 6.1
Jan-31 09:30 am 6.65 520 6.1
Jan-31 08:30 am 6.67 525 6.2
Jan-31 07:30 am 6.68 528 6.2
Jan-31 06:30 am 6.69 531 6.3
Jan-31 05:30 am 6.72 539 6.3
Jan-31 04:30 am 6.73 542 6.4
Jan-31 03:30 am 6.75 548 6.4
Jan-31 02:30 am 6.77 553 6.5
Jan-31 01:30 am 6.78 556 6.5
Jan-31 12:30 am 6.79 559 6.6
Jan-30 11:30 pm 6.81 565 6.6
Jan-30 10:30 pm 6.81 565 6.6
Jan-30 09:30 pm 6.81 565 6.6
Jan-30 08:30 pm 6.82 567 6.7
Jan-30 07:30 pm 6.82 567 6.7
Jan-30 06:30 pm 6.82 567 6.7
Jan-30 05:30 pm 6.81 565 6.6
Jan-30 04:30 pm 6.80 562 6.6
Jan-30 03:30 pm 6.80 562 6.6
Jan-30 02:30 pm 6.80 562 6.6
Jan-30 01:30 pm 6.81 565 6.6
Report Generated January 31, 2023 02:09 pm